Time,TemperatureF,DewpointF,PressureIn,WindDirection,WindDirectionDegrees,WindSpeedMPH,WindSpeedGustMPH,Humidity,HourlyPrecipIn,Conditions,Clouds,dailyrainin,SoftwareType,DateUTC
2013-10-28 00:13:00,30.2,24.2,30.20,East,90,2.0,-999.0,78,-99.99,,,0.00,Acu-Link.com,2013-10-28 07:13:00,
2013-10-28 00:28:00,28.4,22.7,30.20,ESE,112,1.1,-999.0,79,-99.99,,,0.00,Acu-Link.com,2013-10-28 07:28:00,
2013-10-28 00:44:00,28.4,23.0,30.20,WNW,292,1.1,-999.0,80,-99.99,,,0.00,Acu-Link.com,2013-10-28 07:44:00,
2013-10-28 00:59:00,28.4,23.3,30.21,ESE,112,0.0,-999.0,81,-99.99,,,0.00,Acu-Link.com,2013-10-28 07:59:00,
2013-10-28 01:14:00,28.4,23.3,30.21,ESE,112,0.0,-999.0,81,-99.99,,,0.00,Acu-Link.com,2013-10-28 08:14:00,
2013-10-28 01:29:00,28.4,23.6,30.21,ESE,112,0.0,-999.0,82,-99.99,,,0.00,Acu-Link.com,2013-10-28 08:29:00,
2013-10-28 01:44:00,28.4,23.6,30.21,SE,135,1.6,-999.0,82,-99.99,,,0.00,Acu-Link.com,2013-10-28 08:44:00,
2013-10-28 01:59:00,28.4,23.6,30.20,SE,135,1.6,-999.0,82,-99.99,,,0.00,Acu-Link.com,2013-10-28 08:59:00,
2013-10-28 02:15:00,28.4,23.6,30.21,ESE,112,1.6,-999.0,82,-99.99,,,0.00,Acu-Link.com,2013-10-28 09:15:00,
2013-10-28 02:30:00,28.4,23.9,30.20,NNW,337,0.0,-999.0,83,-99.99,,,0.00,Acu-Link.com,2013-10-28 09:30:00,
2013-10-28 02:45:00,26.6,22.1,30.20,East,90,0.0,-999.0,83,-99.99,,,0.00,Acu-Link.com,2013-10-28 09:45:00,
2013-10-28 03:00:00,26.6,22.1,30.20,NNW,337,0.0,-999.0,83,-99.99,,,0.00,Acu-Link.com,2013-10-28 10:00:00,
2013-10-28 03:15:00,26.6,22.1,30.20,NW,315,1.1,-999.0,83,-99.99,,,0.00,Acu-Link.com,2013-10-28 10:15:00,
2013-10-28 03:31:00,26.6,22.4,30.20,East,90,0.0,-999.0,84,-99.99,,,0.00,Acu-Link.com,2013-10-28 10:31:00,
2013-10-28 03:46:00,26.6,22.4,30.20,ESE,112,0.0,-999.0,84,-99.99,,,0.00,Acu-Link.com,2013-10-28 10:46:00,
2013-10-28 04:01:00,26.6,22.7,30.20,ENE,67,1.6,-999.0,85,-99.99,,,0.00,Acu-Link.com,2013-10-28 11:01:00,
2013-10-28 04:16:00,26.6,22.7,30.20,ENE,67,0.0,-999.0,85,-99.99,,,0.00,Acu-Link.com,2013-10-28 11:16:00,
2013-10-28 04:31:00,24.8,20.9,30.20,ENE,67,0.0,-999.0,85,-99.99,,,0.00,Acu-Link.com,2013-10-28 11:31:00,
2013-10-28 04:46:00,24.8,21.2,30.19,ESE,112,1.1,-999.0,86,-99.99,,,0.00,Acu-Link.com,2013-10-28 11:46:00,
2013-10-28 05:01:00,24.8,21.2,30.20,ESE,112,0.0,-999.0,86,-99.99,,,0.00,Acu-Link.com,2013-10-28 12:01:00,
2013-10-28 05:16:00,24.8,20.9,30.19,NE,45,0.0,-999.0,85,-99.99,,,0.00,Acu-Link.com,2013-10-28 12:16:00,
2013-10-28 05:32:00,24.8,20.9,30.19,West,270,1.1,-999.0,85,-99.99,,,0.00,Acu-Link.com,2013-10-28 12:32:00,
2013-10-28 05:47:00,23.0,19.2,30.19,NE,45,0.0,-999.0,85,-99.99,,,0.00,Acu-Link.com,2013-10-28 12:47:00,
2013-10-28 06:02:00,23.0,19.2,30.19,East,90,0.0,-999.0,85,-99.99,,,0.00,Acu-Link.com,2013-10-28 13:02:00,
2013-10-28 06:17:00,23.0,19.4,30.19,ENE,67,0.0,-999.0,86,-99.99,,,0.00,Acu-Link.com,2013-10-28 13:17:00,
2013-10-28 06:32:00,23.0,19.4,30.20,ENE,67,0.0,-999.0,86,-99.99,,,0.00,Acu-Link.com,2013-10-28 13:32:00,
2013-10-28 06:47:00,21.2,18.2,30.20,ESE,112,0.0,-999.0,88,-99.99,,,0.00,Acu-Link.com,2013-10-28 13:47:00,
2013-10-28 07:02:00,21.2,18.2,30.19,ESE,112,0.0,-999.0,88,-99.99,,,0.00,Acu-Link.com,2013-10-28 14:02:00,
2013-10-28 07:17:00,21.2,18.2,30.20,ESE,112,0.0,-999.0,88,-99.99,,,0.00,Acu-Link.com,2013-10-28 14:17:00,
2013-10-28 07:32:00,21.2,18.5,30.19,East,90,0.0,-999.0,89,-99.99,,,0.00,Acu-Link.com,2013-10-28 14:32:00,
2013-10-28 07:47:00,21.2,18.5,30.19,NE,45,0.0,-999.0,89,-99.99,,,0.00,Acu-Link.com,2013-10-28 14:47:00,
2013-10-28 08:03:00,21.2,18.5,30.19,ENE,67,0.0,-999.0,89,-99.99,,,0.00,Acu-Link.com,2013-10-28 15:03:00,
2013-10-28 08:18:00,21.2,18.5,30.20,NNE,22,0.0,-999.0,89,-99.99,,,0.00,Acu-Link.com,2013-10-28 15:18:00,
2013-10-28 08:33:00,21.2,18.5,30.20,East,90,0.0,-999.0,89,-99.99,,,0.00,Acu-Link.com,2013-10-28 15:33:00,
2013-10-28 08:48:00,21.2,18.5,30.19,NE,45,0.0,-999.0,89,-99.99,,,0.00,Acu-Link.com,2013-10-28 15:48:00,
2013-10-28 09:03:00,23.0,20.0,30.20,SE,135,0.0,-999.0,88,-99.99,,,0.00,Acu-Link.com,2013-10-28 16:03:00,
2013-10-28 09:19:00,23.0,20.0,30.20,South,180,0.0,-999.0,88,-99.99,,,0.00,Acu-Link.com,2013-10-28 16:19:00,
2013-10-28 09:34:00,26.6,22.4,30.19,NE,45,1.6,-999.0,84,-99.99,,,0.00,Acu-Link.com,2013-10-28 16:34:00,
2013-10-28 09:49:00,26.6,21.9,30.20,West,270,2.7,-999.0,82,-99.99,,,0.00,Acu-Link.com,2013-10-28 16:49:00,
2013-10-28 10:04:00,26.6,21.0,30.19,NNE,22,3.1,-999.0,79,-99.99,,,0.00,Acu-Link.com,2013-10-28 17:04:00,
2013-10-28 10:19:00,28.4,22.7,30.18,WNW,292,3.1,-999.0,79,-99.99,,,0.00,Acu-Link.com,2013-10-28 17:19:00,
2013-10-28 10:35:00,28.4,22.4,30.18,NNW,337,1.1,-999.0,78,-99.99,,,0.00,Acu-Link.com,2013-10-28 17:35:00,
2013-10-28 10:50:00,28.4,22.1,30.18,NNE,22,5.6,-999.0,77,-99.99,,,0.00,Acu-Link.com,2013-10-28 17:50:00,
2013-10-28 11:05:00,30.2,22.6,30.18,NNW,337,2.0,-999.0,73,-99.99,,,0.00,Acu-Link.com,2013-10-28 18:05:00,
2013-10-28 11:20:00,30.2,22.3,30.17,North,0,3.1,-999.0,72,-99.99,,,0.00,Acu-Link.com,2013-10-28 18:20:00,
2013-10-28 11:35:00,32.0,23.7,30.16,WNW,292,3.1,-999.0,71,-99.99,,,0.00,Acu-Link.com,2013-10-28 18:35:00,
2013-10-28 11:50:00,32.0,23.0,30.16,NE,45,2.0,-999.0,69,-99.99,,,0.00,Acu-Link.com,2013-10-28 18:50:00,
2013-10-28 12:06:00,32.0,22.3,30.15,South,180,2.7,-999.0,67,-99.99,,,0.00,Acu-Link.com,2013-10-28 19:06:00,
2013-10-28 12:21:00,32.0,22.3,30.14,NE,45,2.7,-999.0,67,-99.99,,,0.00,Acu-Link.com,2013-10-28 19:21:00,
2013-10-28 12:36:00,33.8,22.9,30.14,SSE,157,1.1,-999.0,64,-99.99,,,0.00,Acu-Link.com,2013-10-28 19:36:00,
2013-10-28 12:51:00,33.8,22.9,30.14,NE,45,3.1,-999.0,64,-99.99,,,0.00,Acu-Link.com,2013-10-28 19:51:00,
2013-10-28 13:06:00,35.6,24.6,30.13,NE,45,3.1,-999.0,64,-99.99,,,0.00,Acu-Link.com,2013-10-28 20:06:00,
2013-10-28 13:21:00,35.6,23.5,30.12,NE,45,1.6,-999.0,61,-99.99,,,0.00,Acu-Link.com,2013-10-28 20:21:00,
2013-10-28 13:37:00,37.4,24.4,30.11,WSW,247,2.7,-999.0,59,-99.99,,,0.00,Acu-Link.com,2013-10-28 20:37:00,
2013-10-28 13:52:00,39.2,24.8,30.11,WNW,292,3.6,-999.0,56,-99.99,,,0.00,Acu-Link.com,2013-10-28 20:52:00,
2013-10-28 14:07:00,37.4,23.6,30.10,NNE,22,2.7,-999.0,57,-99.99,,,0.00,Acu-Link.com,2013-10-28 21:07:00,
2013-10-28 14:22:00,35.6,21.5,30.10,NNE,22,2.0,-999.0,56,-99.99,,,0.00,Acu-Link.com,2013-10-28 21:22:00,
2013-10-28 14:38:00,37.4,23.6,30.09,NW,315,2.7,-999.0,57,-99.99,,,0.00,Acu-Link.com,2013-10-28 21:38:00,
2013-10-28 14:53:00,35.6,21.5,30.09,NW,315,3.1,-999.0,56,-99.99,,,0.00,Acu-Link.com,2013-10-28 21:53:00,
2013-10-28 15:08:00,37.4,22.7,30.08,West,270,3.1,-999.0,55,-99.99,,,0.00,Acu-Link.com,2013-10-28 22:08:00,
2013-10-28 15:23:00,35.6,21.5,30.07,NW,315,2.0,-999.0,56,-99.99,,,0.00,Acu-Link.com,2013-10-28 22:23:00,
2013-10-28 15:38:00,37.4,22.7,30.07,NW,315,1.6,-999.0,55,-99.99,,,0.00,Acu-Link.com,2013-10-28 22:38:00,
2013-10-28 15:53:00,35.6,21.5,30.06,NE,45,2.0,-999.0,56,-99.99,,,0.00,Acu-Link.com,2013-10-28 22:53:00,
2013-10-28 16:08:00,35.6,22.3,30.06,NW,315,1.6,-999.0,58,-99.99,,,0.00,Acu-Link.com,2013-10-28 23:08:00,
2013-10-28 16:24:00,35.6,21.5,30.06,SW,225,2.0,-999.0,56,-99.99,,,0.00,Acu-Link.com,2013-10-28 23:24:00,
2013-10-28 16:39:00,37.4,23.6,30.06,ENE,67,0.0,-999.0,57,-99.99,,,0.00,Acu-Link.com,2013-10-28 23:39:00,
2013-10-28 16:54:00,35.6,22.3,30.06,ESE,112,0.0,-999.0,58,-99.99,,,0.00,Acu-Link.com,2013-10-28 23:54:00,
2013-10-28 17:09:00,33.8,21.4,30.05,North,0,2.7,-999.0,60,-99.99,,,0.00,Acu-Link.com,2013-10-29 00:09:00,
2013-10-28 17:24:00,33.8,22.6,30.05,East,90,0.0,-999.0,63,-99.99,,,0.00,Acu-Link.com,2013-10-29 00:24:00,
2013-10-28 17:39:00,32.0,21.6,30.05,ESE,112,0.0,-999.0,65,-99.99,,,0.00,Acu-Link.com,2013-10-29 00:39:00,
2013-10-28 17:54:00,32.0,22.3,30.05,East,90,0.0,-999.0,67,-99.99,,,0.00,Acu-Link.com,2013-10-29 00:54:00,
2013-10-28 18:10:00,30.2,21.3,30.04,East,90,0.0,-999.0,69,-99.99,,,0.00,Acu-Link.com,2013-10-29 01:10:00,
2013-10-28 18:25:00,30.2,21.9,30.04,East,90,0.0,-999.0,71,-99.99,,,0.00,Acu-Link.com,2013-10-29 01:25:00,
2013-10-28 18:40:00,30.2,22.6,30.04,East,90,0.0,-999.0,73,-99.99,,,0.00,Acu-Link.com,2013-10-29 01:40:00,
2013-10-28 18:55:00,28.4,21.2,30.03,East,90,0.0,-999.0,74,-99.99,,,0.00,Acu-Link.com,2013-10-29 01:55:00,
2013-10-28 19:10:00,28.4,21.5,30.03,East,90,0.0,-999.0,75,-99.99,,,0.00,Acu-Link.com,2013-10-29 02:10:00,
2013-10-28 19:25:00,28.4,21.2,30.03,ENE,67,0.0,-999.0,74,-99.99,,,0.00,Acu-Link.com,2013-10-29 02:25:00,
2013-10-28 19:40:00,28.4,21.8,30.03,SSE,157,0.0,-999.0,76,-99.99,,,0.00,Acu-Link.com,2013-10-29 02:40:00,
2013-10-28 19:55:00,28.4,22.1,30.02,SSE,157,0.0,-999.0,77,-99.99,,,0.00,Acu-Link.com,2013-10-29 02:55:00,
2013-10-28 20:11:00,26.6,21.0,30.02,NNE,22,0.0,-999.0,79,-99.99,,,0.00,Acu-Link.com,2013-10-29 03:11:00,
2013-10-28 20:26:00,26.6,21.0,30.01,ENE,67,0.0,-999.0,79,-99.99,,,0.00,Acu-Link.com,2013-10-29 03:26:00,
2013-10-28 20:41:00,26.6,21.0,30.01,NE,45,1.6,-999.0,79,-99.99,,,0.00,Acu-Link.com,2013-10-29 03:41:00,
2013-10-28 20:56:00,26.6,21.3,30.01,NE,45,0.0,-999.0,80,-99.99,,,0.00,Acu-Link.com,2013-10-29 03:56:00,
2013-10-28 21:12:00,26.6,21.3,30.01,East,90,0.0,-999.0,80,-99.99,,,0.00,Acu-Link.com,2013-10-29 04:12:00,
2013-10-28 21:27:00,26.6,22.1,30.01,ENE,67,0.0,-999.0,83,-99.99,,,0.00,Acu-Link.com,2013-10-29 04:27:00,
2013-10-28 21:42:00,26.6,22.1,30.01,East,90,0.0,-999.0,83,-99.99,,,0.00,Acu-Link.com,2013-10-29 04:42:00,
2013-10-28 21:57:00,24.8,20.7,30.01,NE,45,0.0,-999.0,84,-99.99,,,0.00,Acu-Link.com,2013-10-29 04:57:00,
2013-10-28 22:12:00,24.8,20.4,30.00,East,90,0.0,-999.0,83,-99.99,,,0.00,Acu-Link.com,2013-10-29 05:12:00,
2013-10-28 22:27:00,23.0,19.2,30.01,East,90,0.0,-999.0,85,-99.99,,,0.00,Acu-Link.com,2013-10-29 05:27:00,
2013-10-28 22:42:00,23.0,19.7,30.00,ENE,67,0.0,-999.0,87,-99.99,,,0.00,Acu-Link.com,2013-10-29 05:42:00,
2013-10-28 22:58:00,23.0,19.7,30.00,ENE,67,0.0,-999.0,87,-99.99,,,0.00,Acu-Link.com,2013-10-29 05:58:00,
2013-10-28 23:13:00,23.0,20.0,29.99,East,90,0.0,-999.0,88,-99.99,,,0.00,Acu-Link.com,2013-10-29 06:13:00,
2013-10-28 23:28:00,23.0,20.0,29.99,East,90,0.0,-999.0,88,-99.99,,,0.00,Acu-Link.com,2013-10-29 06:28:00,
2013-10-28 23:43:00,23.0,19.7,29.99,East,90,0.0,-999.0,87,-99.99,,,0.00,Acu-Link.com,2013-10-29 06:43:00,
2013-10-28 23:58:00,23.0,20.0,29.98,East,90,0.0,-999.0,88,-99.99,,,0.00,Acu-Link.com,2013-10-29 06:58:00,